createdAt,value
2023-05-01T00:00:19.320Z,0.94
2023-05-01T00:01:19.339Z,0.95
2023-05-01T00:02:19.497Z,0.92
2023-05-01T00:03:19.486Z,0.94
2023-05-01T00:04:19.613Z,0.94
2023-05-01T00:05:19.513Z,0.88
2023-05-01T00:06:19.519Z,0.93
2023-05-01T00:07:19.564Z,0.92
2023-05-01T00:08:19.577Z,0.87
2023-05-01T00:09:19.633Z,0.93
2023-05-01T00:10:19.653Z,0.95
2023-05-01T00:11:19.695Z,0.93
2023-05-01T00:12:19.814Z,0.93
2023-05-01T00:13:19.758Z,0.91
2023-05-01T00:14:19.800Z,0.91
2023-05-01T00:15:19.843Z,0.93
2023-05-01T00:16:19.925Z,0.89
2023-05-01T00:17:19.904Z,0.96
2023-05-01T00:18:19.949Z,0.98
2023-05-01T00:19:19.985Z,0.92
2023-05-01T00:20:20.021Z,0.93
2023-05-01T00:21:20.064Z,0.92
2023-05-01T00:22:20.080Z,0.93
2023-05-01T00:23:20.111Z,0.94
2023-05-01T00:24:20.113Z,0.95
2023-05-01T00:25:20.162Z,0.94
2023-05-01T00:26:20.223Z,0.95
2023-05-01T00:27:20.239Z,0.93
2023-05-01T00:28:20.267Z,0.93
2023-05-01T00:29:20.289Z,0.93
2023-05-01T00:30:20.338Z,0.90
2023-05-01T00:31:20.399Z,0.94
2023-05-01T00:32:20.509Z,0.92
2023-05-01T00:33:20.460Z,0.91
2023-05-01T00:34:20.453Z,0.95
2023-05-01T00:35:20.533Z,0.93
2023-05-01T00:36:20.571Z,0.89
2023-05-01T00:37:20.577Z,0.92
2023-05-01T00:38:20.616Z,0.91
2023-05-01T00:39:20.699Z,0.95
2023-05-01T00:40:20.668Z,0.92
2023-05-01T00:41:20.700Z,0.93
2023-05-01T00:42:20.762Z,0.90
2023-05-01T00:43:20.811Z,0.91
2023-05-01T00:44:20.827Z,0.92
2023-05-01T00:45:20.845Z,0.91
2023-05-01T00:46:20.907Z,0.89
2023-05-01T00:47:20.919Z,0.95
2023-05-01T00:48:20.949Z,0.92
2023-05-01T00:49:20.972Z,0.94
2023-05-01T00:50:21.032Z,0.92
2023-05-01T00:51:21.037Z,0.91
2023-05-01T00:52:21.062Z,0.89
2023-05-01T00:53:21.132Z,0.91
2023-05-01T00:54:21.138Z,0.93
2023-05-01T00:55:21.168Z,0.92
2023-05-01T00:56:21.199Z,0.93
2023-05-01T00:57:21.259Z,0.94
2023-05-01T00:58:21.268Z,0.92
2023-05-01T00:59:21.298Z,0.88
2023-05-01T01:00:21.317Z,0.90
2023-05-01T01:01:21.387Z,0.94
2023-05-01T01:02:21.408Z,0.92
2023-05-01T01:03:21.411Z,0.91
2023-05-01T01:04:21.519Z,0.91
2023-05-01T01:05:21.567Z,0.92
2023-05-01T01:06:21.623Z,0.89
2023-05-01T01:07:21.621Z,0.89
2023-05-01T01:08:21.594Z,0.91
2023-05-01T01:09:21.677Z,0.89
2023-05-01T01:10:21.707Z,0.89
2023-05-01T01:11:21.712Z,0.93
2023-05-01T01:12:21.732Z,0.91
2023-05-01T01:13:21.751Z,0.88
2023-05-01T01:14:21.806Z,0.91
2023-05-01T01:15:21.833Z,0.94
2023-05-01T01:16:21.882Z,0.91
2023-05-01T01:17:21.928Z,0.93
2023-05-01T01:18:21.991Z,0.93
2023-05-01T01:19:22.094Z,0.93
2023-05-01T01:20:22.050Z,0.90
2023-05-01T01:21:22.071Z,0.91
2023-05-01T01:22:22.119Z,0.94
2023-05-01T01:23:22.170Z,0.90
2023-05-01T01:24:22.168Z,0.90
2023-05-01T01:25:22.228Z,0.92
2023-05-01T01:26:22.244Z,0.93
2023-05-01T01:27:22.306Z,0.92
2023-05-01T01:28:22.354Z,0.91
2023-05-01T01:29:22.348Z,0.88
2023-05-01T01:30:22.416Z,0.91
2023-05-01T01:31:22.441Z,0.89
2023-05-01T01:32:22.506Z,0.91
2023-05-01T01:33:22.497Z,0.92
2023-05-01T01:34:22.563Z,0.89
2023-05-01T01:35:22.631Z,0.90
2023-05-01T01:36:22.688Z,0.86
2023-05-01T01:37:22.662Z,0.88
2023-05-01T01:38:22.748Z,0.90
2023-05-01T01:39:22.738Z,0.90
2023-05-01T01:40:22.796Z,0.91
2023-05-01T01:41:22.812Z,0.87
2023-05-01T01:42:22.844Z,0.91
2023-05-01T01:43:22.895Z,0.91
2023-05-01T01:44:22.933Z,0.85
2023-05-01T01:45:22.996Z,0.89
2023-05-01T01:46:23.078Z,0.89
2023-05-01T01:47:23.078Z,0.89
2023-05-01T01:48:23.091Z,0.93
2023-05-01T01:49:23.137Z,0.89
2023-05-01T01:50:23.201Z,0.89
2023-05-01T01:51:23.237Z,0.93
2023-05-01T01:52:23.245Z,0.89
2023-05-01T01:53:23.283Z,0.90
2023-05-01T01:54:23.331Z,0.91
2023-05-01T01:55:23.372Z,0.90
2023-05-01T01:56:23.409Z,0.91
2023-05-01T01:57:23.446Z,0.87
2023-05-01T01:58:23.470Z,0.90
2023-05-01T01:59:23.521Z,0.89
2023-05-01T02:00:23.595Z,0.90
2023-05-01T02:01:23.586Z,0.88
2023-05-01T02:02:23.721Z,0.91
2023-05-01T02:03:23.772Z,0.87
2023-05-01T02:04:23.723Z,0.88
2023-05-01T02:05:23.777Z,0.91
2023-05-01T02:06:23.825Z,0.90
2023-05-01T02:07:23.865Z,0.85
2023-05-01T02:08:23.907Z,0.92
2023-05-01T02:09:23.928Z,0.91
2023-05-01T02:10:24.003Z,0.91
2023-05-01T02:11:24.008Z,0.85
2023-05-01T02:12:24.079Z,0.89
2023-05-01T02:13:24.108Z,0.87
2023-05-01T02:14:24.194Z,0.91
2023-05-01T02:15:24.193Z,0.91
2023-05-01T02:16:24.307Z,0.91
2023-05-01T02:17:24.325Z,0.90
2023-05-01T02:18:24.337Z,0.91
2023-05-01T02:19:24.384Z,0.89
2023-05-01T02:20:24.429Z,0.89
2023-05-01T02:21:24.485Z,0.91
2023-05-01T02:22:24.553Z,0.90
2023-05-01T02:23:24.588Z,0.88
2023-05-01T02:24:24.658Z,0.90
2023-05-01T02:25:24.679Z,0.88
2023-05-01T02:26:24.745Z,0.90
2023-05-01T02:27:24.780Z,0.87
2023-05-01T02:28:24.840Z,0.90
2023-05-01T02:29:24.859Z,0.90
2023-05-01T02:30:24.922Z,0.89
2023-05-01T02:31:25.004Z,0.91
2023-05-01T02:32:25.043Z,0.86
2023-05-01T02:33:25.033Z,0.89
2023-05-01T02:34:25.083Z,0.91
2023-05-01T02:35:25.137Z,0.90
2023-05-01T02:36:25.195Z,0.91
2023-05-01T02:37:25.219Z,0.90
2023-05-01T02:38:25.269Z,0.87
2023-05-01T02:39:25.300Z,0.89
2023-05-01T02:40:25.363Z,0.90
2023-05-01T02:41:25.387Z,0.89
2023-05-01T02:42:25.452Z,0.90
2023-05-01T02:43:25.510Z,0.90
2023-05-01T02:44:25.525Z,0.88
2023-05-01T02:45:25.600Z,0.89
2023-05-01T02:46:25.735Z,0.89
2023-05-01T02:47:25.731Z,0.87
2023-05-01T02:48:25.740Z,0.90
2023-05-01T02:49:25.802Z,0.89
2023-05-01T02:50:25.829Z,0.88
2023-05-01T02:51:25.875Z,0.87
2023-05-01T02:52:25.918Z,0.89
2023-05-01T02:53:25.944Z,0.90
2023-05-01T02:54:25.979Z,0.88
2023-05-01T02:55:26.025Z,0.90
2023-05-01T02:56:26.055Z,0.89
2023-05-01T02:57:26.129Z,0.85
2023-05-01T02:58:26.166Z,0.90
2023-05-01T02:59:26.199Z,0.89
2023-05-01T03:00:26.231Z,0.88
2023-05-01T03:01:26.341Z,0.88
2023-05-01T03:02:26.325Z,0.85
2023-05-01T03:03:26.369Z,0.90
2023-05-01T03:04:26.496Z,0.87
2023-05-01T03:05:26.462Z,0.86
2023-05-01T03:06:26.561Z,0.88
2023-05-01T03:07:26.581Z,0.89
2023-05-01T03:08:26.618Z,0.87
2023-05-01T03:09:26.699Z,0.90
2023-05-01T03:10:26.692Z,0.85
2023-05-01T03:11:26.771Z,0.89
2023-05-01T03:12:26.789Z,0.88
2023-05-01T03:13:26.858Z,0.87
2023-05-01T03:14:26.883Z,0.88
2023-05-01T03:15:26.946Z,0.87
2023-05-01T03:16:27.085Z,0.88
2023-05-01T03:17:27.069Z,0.88
2023-05-01T03:18:27.103Z,0.88
2023-05-01T03:19:27.115Z,0.89
2023-05-01T03:20:27.658Z,0.90
2023-05-01T03:21:27.210Z,0.88
2023-05-01T03:22:27.279Z,0.88
2023-05-01T03:23:27.293Z,0.88
2023-05-01T03:24:27.335Z,0.87
2023-05-01T03:25:27.407Z,0.89
2023-05-01T03:26:27.435Z,0.88
2023-05-01T03:27:27.489Z,0.89
2023-05-01T03:28:27.538Z,0.88
2023-05-01T03:29:27.587Z,0.87
2023-05-01T03:30:27.634Z,0.86
2023-05-01T03:31:27.711Z,0.86
2023-05-01T03:32:27.882Z,0.88
2023-05-01T03:33:27.804Z,0.88
2023-05-01T03:34:27.851Z,0.88
2023-05-01T03:35:27.947Z,0.87
2023-05-01T03:36:27.947Z,0.88
2023-05-01T03:37:28.003Z,0.86
2023-05-01T03:38:28.036Z,0.87
2023-05-01T03:39:28.099Z,0.85
2023-05-01T03:40:28.146Z,0.87
2023-05-01T03:41:28.217Z,0.86
2023-05-01T03:42:28.256Z,0.88
2023-05-01T03:43:28.299Z,0.87
2023-05-01T03:44:28.346Z,0.87
2023-05-01T03:45:28.391Z,0.87
2023-05-01T03:46:28.487Z,0.86
2023-05-01T03:47:28.533Z,0.86
2023-05-01T03:48:28.552Z,0.86
2023-05-01T03:49:28.606Z,0.85
2023-05-01T03:50:28.642Z,0.86
2023-05-01T03:51:28.697Z,0.86
2023-05-01T03:52:28.741Z,0.85
2023-05-01T03:53:28.792Z,0.85
2023-05-01T03:54:28.849Z,0.86
2023-05-01T03:55:28.939Z,0.86
2023-05-01T03:56:28.985Z,0.85
2023-05-01T03:57:29.009Z,0.86
2023-05-01T03:58:29.046Z,0.84
2023-05-01T03:59:29.115Z,0.87
2023-05-01T04:00:29.162Z,0.86
2023-05-01T04:01:29.184Z,0.85
2023-05-01T04:02:29.383Z,0.85
2023-05-01T04:03:29.362Z,0.86
2023-05-01T04:04:29.569Z,0.85
2023-05-01T04:05:29.392Z,0.86
2023-05-01T04:06:29.521Z,0.85
2023-05-01T04:07:29.550Z,0.86
2023-05-01T04:08:29.574Z,0.85
2023-05-01T04:09:29.618Z,0.87
2023-05-01T04:10:29.710Z,0.84
2023-05-01T04:11:29.721Z,0.86
2023-05-01T04:12:29.795Z,0.84
2023-05-01T04:13:29.818Z,0.85
2023-05-01T04:14:29.893Z,0.83
2023-05-01T04:15:29.965Z,0.84
2023-05-01T04:16:30.045Z,0.84
2023-05-01T04:17:30.030Z,0.85
2023-05-01T04:18:30.107Z,0.85
2023-05-01T04:19:30.129Z,0.85
2023-05-01T04:20:30.205Z,0.83
2023-05-01T04:21:30.278Z,0.83
2023-05-01T04:22:30.274Z,0.86
2023-05-01T04:23:30.314Z,0.85
2023-05-01T04:24:30.377Z,0.85
2023-05-01T04:25:30.406Z,0.84
2023-05-01T04:26:30.487Z,0.86
2023-05-01T04:27:30.525Z,0.85
2023-05-01T04:28:30.597Z,0.82
2023-05-01T04:29:30.650Z,0.85
2023-05-01T04:30:30.697Z,0.85
2023-05-01T04:31:30.827Z,0.85
2023-05-01T04:32:30.885Z,0.85
2023-05-01T04:33:30.843Z,0.84
2023-05-01T04:34:30.884Z,0.85
2023-05-01T04:35:30.934Z,0.85
2023-05-01T04:36:30.995Z,0.83
2023-05-01T04:37:31.065Z,0.82
2023-05-01T04:38:31.106Z,0.86
2023-05-01T04:39:31.138Z,0.84
2023-05-01T04:40:31.192Z,0.85
2023-05-01T04:41:31.264Z,0.84
2023-05-01T04:42:31.350Z,0.84
2023-05-01T04:43:31.376Z,0.83
2023-05-01T04:44:31.426Z,0.83
2023-05-01T04:45:31.450Z,0.84
2023-05-01T04:46:31.529Z,0.81
2023-05-01T04:47:31.663Z,0.84
2023-05-01T04:48:31.637Z,0.85
2023-05-01T04:49:31.672Z,0.83
2023-05-01T04:50:31.746Z,0.84
2023-05-01T04:51:31.782Z,0.84
2023-05-01T04:52:31.885Z,0.84
2023-05-01T04:53:31.937Z,0.84
2023-05-01T04:54:31.957Z,0.84
2023-05-01T04:55:32.033Z,0.83
2023-05-01T04:56:32.067Z,0.81
2023-05-01T04:57:32.168Z,0.81
2023-05-01T04:58:32.165Z,0.84
2023-05-01T04:59:32.223Z,0.84
2023-05-01T05:00:32.281Z,0.85
2023-05-01T05:01:32.397Z,0.84
2023-05-01T05:02:32.455Z,0.85
2023-05-01T05:03:32.536Z,0.84
2023-05-01T05:04:32.500Z,0.83
2023-05-01T05:05:32.554Z,0.81
2023-05-01T05:06:32.617Z,0.84
2023-05-01T05:07:32.639Z,0.83
2023-05-01T05:08:32.690Z,0.83
2023-05-01T05:09:32.734Z,0.84
2023-05-01T05:10:32.815Z,0.83
2023-05-01T05:11:32.854Z,0.83
2023-05-01T05:12:32.922Z,0.84
2023-05-01T05:13:32.939Z,0.83
2023-05-01T05:14:33.011Z,0.83
2023-05-01T05:15:33.071Z,0.83
2023-05-01T05:16:33.157Z,0.82
2023-05-01T05:17:33.219Z,0.83
2023-05-01T05:18:33.223Z,0.82
2023-05-01T05:19:33.294Z,0.80
2023-05-01T05:20:33.344Z,0.84
2023-05-01T05:21:33.434Z,0.84
2023-05-01T05:22:33.464Z,0.80
2023-05-01T05:23:33.489Z,0.82
2023-05-01T05:24:33.537Z,0.83
2023-05-01T05:25:33.624Z,0.83
2023-05-01T05:26:33.683Z,0.79
2023-05-01T05:27:33.710Z,0.82
2023-05-01T05:28:33.768Z,0.81
2023-05-01T05:29:33.807Z,0.81
2023-05-01T05:30:33.856Z,0.80
2023-05-01T05:31:33.956Z,0.83
2023-05-01T05:32:34.020Z,0.79
2023-05-01T05:33:33.996Z,0.81
2023-05-01T05:34:34.034Z,0.83
2023-05-01T05:35:34.115Z,0.81
2023-05-01T05:36:34.384Z,0.82
2023-05-01T05:37:34.217Z,0.83
2023-05-01T05:38:34.228Z,0.83
2023-05-01T05:39:34.286Z,0.82
2023-05-01T05:40:34.335Z,0.81
2023-05-01T05:41:34.387Z,0.82
2023-05-01T05:42:34.431Z,0.82
2023-05-01T05:43:34.476Z,0.80
2023-05-01T05:44:34.527Z,0.83
2023-05-01T05:45:34.578Z,0.79
2023-05-01T05:46:34.653Z,0.82
2023-05-01T05:47:34.669Z,0.82
2023-05-01T05:48:34.735Z,0.82
2023-05-01T05:49:34.791Z,0.82
2023-05-01T05:50:34.839Z,0.81
2023-05-01T05:51:34.875Z,0.81
2023-05-01T05:52:34.920Z,0.79
2023-05-01T05:53:34.980Z,0.81
2023-05-01T05:54:35.017Z,0.80
2023-05-01T05:55:35.071Z,0.82
2023-05-01T05:56:35.124Z,0.81
2023-05-01T05:57:35.193Z,0.82
2023-05-01T05:58:35.217Z,0.82
2023-05-01T05:59:35.269Z,0.82
2023-05-01T06:00:35.300Z,0.81
2023-05-01T06:01:35.341Z,0.82
2023-05-01T06:02:35.529Z,0.82
2023-05-01T06:03:35.631Z,0.82
2023-05-01T06:04:35.514Z,0.81
2023-05-01T06:05:35.621Z,0.80
2023-05-01T06:06:35.604Z,0.79
2023-05-01T06:07:35.624Z,0.79
2023-05-01T06:08:35.689Z,0.79
2023-05-01T06:09:35.702Z,0.81
2023-05-01T06:10:35.747Z,0.79
2023-05-01T06:11:35.809Z,0.80
2023-05-01T06:12:37.863Z,0.81
2023-05-01T06:13:36.858Z,0.81
2023-05-01T06:14:35.823Z,0.81
2023-05-01T06:15:35.823Z,0.80
2023-05-01T06:16:35.943Z,0.79
2023-05-01T06:17:35.843Z,0.81
2023-05-01T06:18:35.812Z,0.80
2023-05-01T06:19:35.782Z,0.81
2023-05-01T06:20:35.790Z,0.78
2023-05-01T06:21:35.787Z,0.78
2023-05-01T06:22:35.786Z,0.78
2023-05-01T06:23:35.801Z,0.80
2023-05-01T06:24:35.775Z,0.79
2023-05-01T06:25:35.808Z,0.78
2023-05-01T06:26:35.839Z,0.80
2023-05-01T06:27:35.881Z,0.79
2023-05-01T06:28:35.907Z,0.80
2023-05-01T06:29:35.939Z,0.79
2023-05-01T06:30:35.977Z,0.78
2023-05-01T06:31:36.079Z,0.81
2023-05-01T06:32:36.061Z,0.77
2023-05-01T06:33:36.113Z,0.80
2023-05-01T06:34:36.159Z,0.79
2023-05-01T06:35:36.161Z,0.77
2023-05-01T06:36:36.227Z,0.78
2023-05-01T06:37:36.234Z,0.78
2023-05-01T06:38:36.263Z,0.78
2023-05-01T06:39:36.324Z,0.78
2023-05-01T06:40:36.342Z,0.77
2023-05-01T06:41:36.366Z,0.76
2023-05-01T06:42:36.422Z,0.80
2023-05-01T06:43:36.444Z,0.77
2023-05-01T06:44:36.495Z,0.76
2023-05-01T06:45:36.505Z,0.77
2023-05-01T06:46:36.586Z,0.76
2023-05-01T06:47:36.606Z,0.77
2023-05-01T06:48:36.600Z,0.77
2023-05-01T06:49:36.648Z,0.79
2023-05-01T06:50:36.677Z,0.78
2023-05-01T06:51:36.700Z,0.76
2023-05-01T06:52:36.751Z,0.79
2023-05-01T06:53:36.780Z,0.77
2023-05-01T06:54:36.861Z,0.79
2023-05-01T06:55:36.848Z,0.80
2023-05-01T06:56:36.894Z,0.77
2023-05-01T06:57:36.940Z,0.78
2023-05-01T06:58:36.984Z,0.77
2023-05-01T06:59:37.000Z,0.74
2023-05-01T07:00:37.042Z,0.74
2023-05-01T07:01:37.120Z,0.74
2023-05-01T07:02:37.226Z,0.77
2023-05-01T07:03:37.179Z,0.77
2023-05-01T07:04:37.175Z,0.79
2023-05-01T07:05:37.211Z,0.77
2023-05-01T07:06:37.368Z,0.77
2023-05-01T07:07:38.935Z,0.79
2023-05-01T07:08:37.274Z,0.79
2023-05-01T07:09:37.295Z,0.79
2023-05-01T07:10:38.219Z,0.79
2023-05-01T07:11:37.242Z,0.74
2023-05-01T07:12:37.240Z,0.77
2023-05-01T07:13:37.272Z,0.78
2023-05-01T07:14:37.246Z,0.78
2023-05-01T07:15:37.239Z,0.74
2023-05-01T07:16:37.325Z,0.78
2023-05-01T07:17:37.302Z,0.75
2023-05-01T07:18:37.225Z,0.78
2023-05-01T07:19:37.220Z,0.75
2023-05-01T07:20:37.186Z,0.77
2023-05-01T07:21:37.210Z,0.76
2023-05-01T07:22:37.189Z,0.75
2023-05-01T07:23:37.195Z,0.77
2023-05-01T07:24:37.261Z,0.76
2023-05-01T07:25:37.285Z,0.78
2023-05-01T07:26:37.299Z,0.79
2023-05-01T07:27:37.404Z,0.76
2023-05-01T07:28:37.390Z,0.74
2023-05-01T07:29:37.445Z,0.74
2023-05-01T07:30:37.437Z,0.74
2023-05-01T07:31:37.498Z,0.79
2023-05-01T07:32:37.509Z,0.78
2023-05-01T07:33:37.541Z,0.76
2023-05-01T07:34:37.552Z,0.79
2023-05-01T07:35:37.592Z,0.77
2023-05-01T07:36:37.678Z,0.79
2023-05-01T07:37:37.938Z,0.74
2023-05-01T07:38:37.727Z,0.77
2023-05-01T07:39:37.707Z,0.75
2023-05-01T07:40:37.730Z,0.76
2023-05-01T07:41:37.785Z,0.78
2023-05-01T07:42:37.805Z,0.73
2023-05-01T07:43:37.835Z,0.77
2023-05-01T07:44:37.903Z,0.76
2023-05-01T07:45:37.975Z,0.78
2023-05-01T07:46:38.037Z,0.78
2023-05-01T07:47:37.967Z,0.77
2023-05-01T07:48:38.938Z,0.78
2023-05-01T07:49:37.982Z,0.78
2023-05-01T07:50:38.026Z,0.76
2023-05-01T07:51:38.039Z,0.76
2023-05-01T07:52:38.122Z,0.74
2023-05-01T07:53:38.128Z,0.74
2023-05-01T07:54:38.131Z,0.77
2023-05-01T07:55:38.226Z,0.78
2023-05-01T07:56:38.193Z,0.77
2023-05-01T07:57:38.314Z,0.73
2023-05-01T07:58:38.257Z,0.75
2023-05-01T07:59:38.270Z,0.76
2023-05-01T08:00:38.310Z,0.74
2023-05-01T08:01:38.355Z,0.73
2023-05-01T08:02:38.500Z,0.77
2023-05-01T08:03:38.557Z,0.73
2023-05-01T08:04:38.431Z,0.74
2023-05-01T08:05:38.436Z,0.74
2023-05-01T08:06:38.532Z,0.77
2023-05-01T08:07:38.483Z,0.72
2023-05-01T08:08:38.543Z,0.71
2023-05-01T08:09:38.493Z,0.75
2023-05-01T08:10:38.561Z,0.73
2023-05-01T08:11:38.588Z,0.74
2023-05-01T08:12:38.581Z,0.72
2023-05-01T08:13:38.632Z,0.74
2023-05-01T08:14:38.599Z,0.73
2023-05-01T08:15:38.667Z,0.73
2023-05-01T08:16:38.729Z,0.73
2023-05-01T08:17:38.784Z,0.69
2023-05-01T08:18:38.695Z,0.72
2023-05-01T08:19:38.709Z,0.71
2023-05-01T08:20:38.730Z,0.73
2023-05-01T08:21:38.756Z,0.72
2023-05-01T08:22:38.764Z,0.72
2023-05-01T08:23:38.779Z,0.69
2023-05-01T08:24:38.794Z,0.74
2023-05-01T08:25:38.816Z,0.72
2023-05-01T08:26:38.869Z,0.73
2023-05-01T08:27:38.858Z,0.73
2023-05-01T08:28:38.883Z,0.71
2023-05-01T08:29:38.906Z,0.73
2023-05-01T08:30:38.913Z,0.73
2023-05-01T08:31:38.969Z,0.75
2023-05-01T08:32:38.956Z,0.70
2023-05-01T08:33:38.940Z,0.73
2023-05-01T08:34:38.967Z,0.73
2023-05-01T08:35:38.965Z,0.73
2023-05-01T08:36:38.968Z,0.71
2023-05-01T08:37:39.001Z,0.70
2023-05-01T08:38:39.012Z,0.72
2023-05-01T08:39:39.029Z,0.69
2023-05-01T08:40:39.043Z,0.71
2023-05-01T08:41:39.017Z,0.70
2023-05-01T08:42:39.208Z,0.71
2023-05-01T08:43:39.057Z,0.69
2023-05-01T08:44:39.217Z,0.74
2023-05-01T08:45:39.060Z,0.70
2023-05-01T08:46:39.187Z,0.72
2023-05-01T08:47:39.150Z,0.70
2023-05-01T08:48:39.108Z,0.73
2023-05-01T08:49:39.120Z,0.73
2023-05-01T08:50:39.099Z,0.71
2023-05-01T08:51:39.102Z,0.74
2023-05-01T08:52:39.168Z,0.73
2023-05-01T08:53:39.131Z,0.73
2023-05-01T08:54:39.141Z,0.73
2023-05-01T08:55:39.173Z,0.72
2023-05-01T08:56:39.141Z,0.71
2023-05-01T08:57:39.168Z,0.73
2023-05-01T08:58:39.186Z,0.72
2023-05-01T08:59:39.146Z,0.74
2023-05-01T09:00:39.245Z,0.72
2023-05-01T09:01:39.192Z,0.72
2023-05-01T09:02:39.301Z,0.72
2023-05-01T09:03:39.228Z,0.73
2023-05-01T09:04:39.193Z,0.72
2023-05-01T09:05:39.197Z,0.72
2023-05-01T09:06:39.232Z,0.72
2023-05-01T09:07:39.191Z,0.71
2023-05-01T09:08:39.257Z,0.72
2023-05-01T09:09:39.188Z,0.71
2023-05-01T09:10:39.191Z,0.71
2023-05-01T09:11:39.226Z,0.72
2023-05-01T09:12:39.233Z,0.71
2023-05-01T09:13:39.200Z,0.70
2023-05-01T09:14:39.195Z,0.71
2023-05-01T09:15:39.210Z,0.73
2023-05-01T09:16:39.218Z,0.71
2023-05-01T09:17:39.206Z,0.70
2023-05-01T09:18:39.196Z,0.72
2023-05-01T09:19:39.174Z,0.72
2023-05-01T09:20:39.177Z,0.73
2023-05-01T09:21:39.237Z,0.70
2023-05-01T09:22:39.195Z,0.71
2023-05-01T09:23:39.179Z,0.73
2023-05-01T09:24:39.152Z,0.72
2023-05-01T09:25:39.163Z,0.71
2023-05-01T09:26:39.170Z,0.73
2023-05-01T09:27:39.187Z,0.71
2023-05-01T09:28:39.186Z,0.72
2023-05-01T09:29:39.223Z,0.71
2023-05-01T09:30:39.152Z,0.70
2023-05-01T09:31:39.169Z,0.74
2023-05-01T09:32:40.852Z,0.73
2023-05-01T09:33:39.129Z,0.73
2023-05-01T09:34:39.131Z,0.73
2023-05-01T09:35:39.129Z,0.72
2023-05-01T09:36:39.136Z,0.73
2023-05-01T09:37:39.102Z,0.72
2023-05-01T09:38:39.092Z,0.71
2023-05-01T09:39:39.095Z,0.71
2023-05-01T09:40:39.092Z,0.71
2023-05-01T09:41:39.100Z,0.72
2023-05-01T09:42:39.071Z,0.73
2023-05-01T09:43:39.090Z,0.72
2023-05-01T09:44:39.055Z,0.74
2023-05-01T09:45:39.076Z,0.72
2023-05-01T09:46:39.058Z,0.73
2023-05-01T09:47:39.056Z,0.73
2023-05-01T09:48:39.033Z,0.71
2023-05-01T09:49:39.046Z,0.72
2023-05-01T09:50:39.021Z,0.73
2023-05-01T09:51:39.025Z,0.72
2023-05-01T09:52:39.018Z,0.72
2023-05-01T09:53:39.011Z,0.73
2023-05-01T09:54:39.002Z,0.73
2023-05-01T09:55:39.019Z,0.72
2023-05-01T09:56:38.968Z,0.75
2023-05-01T09:57:38.997Z,0.74
2023-05-01T09:58:38.974Z,0.72
2023-05-01T09:59:38.951Z,0.72
2023-05-01T10:00:38.965Z,0.72
2023-05-01T10:01:38.986Z,0.72
2023-05-01T10:02:39.006Z,0.72
2023-05-01T10:03:39.193Z,0.71
2023-05-01T10:04:38.911Z,0.72
2023-05-01T10:05:38.905Z,0.72
2023-05-01T10:06:39.146Z,0.73
2023-05-01T10:07:38.948Z,0.73
2023-05-01T10:08:38.915Z,0.71
2023-05-01T10:09:38.905Z,0.73
2023-05-01T10:10:38.877Z,0.73
2023-05-01T10:11:38.896Z,0.71
2023-05-01T10:12:38.899Z,0.72
2023-05-01T10:13:38.873Z,0.73
2023-05-01T10:14:38.863Z,0.73
2023-05-01T10:15:38.868Z,0.71
2023-05-01T10:16:38.932Z,0.71
2023-05-01T10:17:38.895Z,0.73
2023-05-01T10:18:38.822Z,0.74
2023-05-01T10:19:38.808Z,0.75
2023-05-01T10:20:38.819Z,0.73
2023-05-01T10:21:38.847Z,0.74
2023-05-01T10:22:38.813Z,0.73
2023-05-01T10:23:38.779Z,0.73
2023-05-01T10:24:38.806Z,0.74
2023-05-01T10:25:38.765Z,0.73
2023-05-01T10:26:38.785Z,0.72
2023-05-01T10:27:38.801Z,0.73
2023-05-01T10:28:38.772Z,0.73
2023-05-01T10:29:38.766Z,0.73
2023-05-01T10:30:38.739Z,0.73
2023-05-01T10:31:40.706Z,0.73
2023-05-01T10:32:38.803Z,0.73
2023-05-01T10:33:38.810Z,0.74
2023-05-01T10:34:38.747Z,0.72
2023-05-01T10:35:38.715Z,0.74
2023-05-01T10:36:38.720Z,0.73
2023-05-01T10:37:38.690Z,0.72
2023-05-01T10:38:38.671Z,0.73
2023-05-01T10:39:38.721Z,0.71
2023-05-01T10:40:38.694Z,0.72
2023-05-01T10:41:38.677Z,0.74
2023-05-01T10:42:38.672Z,0.73
2023-05-01T10:43:38.654Z,0.73
2023-05-01T10:44:38.637Z,0.74
2023-05-01T10:45:38.632Z,0.72
2023-05-01T10:46:38.697Z,0.74
2023-05-01T10:47:38.629Z,0.72
2023-05-01T10:48:38.658Z,0.73
2023-05-01T10:49:38.613Z,0.73
2023-05-01T10:50:38.602Z,0.71
2023-05-01T10:51:38.584Z,0.73
2023-05-01T10:52:38.596Z,0.72
2023-05-01T10:53:38.578Z,0.74
2023-05-01T10:54:38.587Z,0.73
2023-05-01T10:55:38.570Z,0.72
2023-05-01T10:56:38.578Z,0.71
2023-05-01T10:57:38.593Z,0.71
2023-05-01T10:58:38.601Z,0.71
2023-05-01T10:59:38.568Z,0.72
2023-05-01T11:00:38.551Z,0.69
2023-05-01T11:01:38.645Z,0.70
2023-05-01T11:02:38.584Z,0.70
2023-05-01T11:03:38.503Z,0.70
2023-05-01T11:04:38.507Z,0.71
2023-05-01T11:05:38.899Z,0.70
2023-05-01T11:06:38.648Z,0.70
2023-05-01T11:07:38.524Z,0.69
2023-05-01T11:08:38.682Z,0.70
2023-05-01T11:09:38.463Z,0.71
2023-05-01T11:10:38.476Z,0.72
2023-05-01T11:11:38.579Z,0.71
2023-05-01T11:12:38.630Z,0.71
2023-05-01T11:13:38.640Z,0.71
2023-05-01T11:14:38.688Z,0.70
2023-05-01T11:15:38.758Z,0.71
2023-05-01T11:16:39.033Z,0.70
2023-05-01T11:17:38.936Z,0.72
2023-05-01T11:18:38.919Z,0.72
2023-05-01T11:19:38.992Z,0.71
2023-05-01T11:20:39.041Z,0.70
2023-05-01T11:21:39.140Z,0.71
2023-05-01T11:22:39.165Z,0.72
2023-05-01T11:23:39.207Z,0.71
2023-05-01T11:24:39.327Z,0.71
2023-05-01T11:25:39.362Z,0.70
2023-05-01T11:26:39.408Z,0.70
2023-05-01T11:27:39.451Z,0.71
2023-05-01T11:28:39.506Z,0.71
2023-05-01T11:29:39.584Z,0.70
2023-05-01T11:30:39.654Z,0.71
2023-05-01T11:31:39.734Z,0.71
2023-05-01T11:32:39.748Z,0.71
2023-05-01T11:33:39.742Z,0.71
2023-05-01T11:34:39.803Z,0.70
2023-05-01T11:35:39.825Z,0.70
2023-05-01T11:36:39.878Z,0.72
2023-05-01T11:37:39.928Z,0.71
2023-05-01T11:38:39.932Z,0.70
2023-05-01T11:39:39.982Z,0.72
2023-05-01T11:40:40.054Z,0.71
2023-05-01T11:41:40.079Z,0.71
2023-05-01T11:42:40.181Z,0.72
2023-05-01T11:43:40.222Z,0.72
2023-05-01T11:44:40.247Z,0.71
2023-05-01T11:45:40.324Z,0.71
2023-05-01T11:46:40.348Z,0.71
2023-05-01T11:47:40.451Z,0.75
2023-05-01T11:48:40.478Z,0.74
2023-05-01T11:49:40.492Z,0.73
2023-05-01T11:50:40.549Z,0.71
2023-05-01T11:51:40.625Z,0.73
2023-05-01T11:52:40.649Z,0.71
2023-05-01T11:53:40.749Z,0.71
2023-05-01T11:54:40.776Z,0.73
2023-05-01T11:55:40.865Z,0.73
2023-05-01T11:56:40.906Z,0.72
2023-05-01T11:57:40.929Z,0.73
2023-05-01T11:58:40.995Z,0.71
2023-05-01T11:59:41.019Z,0.70
2023-05-01T12:00:41.067Z,0.73
2023-05-01T12:01:41.161Z,0.71
2023-05-01T12:02:41.246Z,0.72
2023-05-01T12:03:41.371Z,0.72
2023-05-01T12:04:41.367Z,0.72
2023-05-01T12:05:41.323Z,0.72
2023-05-01T12:06:41.429Z,0.72
2023-05-01T12:07:41.406Z,0.73
2023-05-01T12:08:41.476Z,0.72
2023-05-01T12:09:41.460Z,0.73
2023-05-01T12:10:41.487Z,0.73
2023-05-01T12:11:41.529Z,0.71
2023-05-01T12:12:41.548Z,0.71
2023-05-01T12:13:41.578Z,0.73
2023-05-01T12:14:41.631Z,0.72
2023-05-01T12:15:41.662Z,0.75
2023-05-01T12:16:41.697Z,0.71
2023-05-01T12:17:41.793Z,0.70
2023-05-01T12:18:41.759Z,0.72
2023-05-01T12:19:41.757Z,0.73
2023-05-01T12:20:41.798Z,0.71
2023-05-01T12:21:41.833Z,0.71
2023-05-01T12:22:41.906Z,0.70
2023-05-01T12:23:41.926Z,0.72
2023-05-01T12:24:42.004Z,0.69
2023-05-01T12:25:42.018Z,0.70
2023-05-01T12:26:42.092Z,0.73
2023-05-01T12:27:42.082Z,0.71
2023-05-01T12:28:42.139Z,0.72
2023-05-01T12:29:42.234Z,0.71
2023-05-01T12:30:42.214Z,0.71
2023-05-01T12:31:42.314Z,0.71
2023-05-01T12:32:42.354Z,0.72
2023-05-01T12:33:42.357Z,0.72
2023-05-01T12:34:42.413Z,0.72
2023-05-01T12:35:42.496Z,0.71
2023-05-01T12:36:42.512Z,0.73
2023-05-01T12:37:42.582Z,0.71
2023-05-01T12:38:42.661Z,0.71
2023-05-01T12:39:42.697Z,0.73
2023-05-01T12:40:42.728Z,0.72
2023-05-01T12:41:42.786Z,0.71
2023-05-01T12:42:42.865Z,0.72
2023-05-01T12:43:44.437Z,0.70
2023-05-01T12:44:42.998Z,0.73
2023-05-01T12:45:43.038Z,0.73
2023-05-01T12:46:43.144Z,0.73
2023-05-01T12:47:43.196Z,0.72
2023-05-01T12:48:43.240Z,0.71
2023-05-01T12:49:43.278Z,0.74
2023-05-01T12:50:44.021Z,0.74
2023-05-01T12:51:43.393Z,0.72
2023-05-01T12:52:43.461Z,0.74
2023-05-01T12:53:43.558Z,0.73
2023-05-01T12:54:43.561Z,0.69
2023-05-01T12:55:43.632Z,0.71
2023-05-01T12:56:43.723Z,0.73
2023-05-01T12:57:43.742Z,0.71
2023-05-01T12:58:43.820Z,0.72
2023-05-01T12:59:43.881Z,0.73
2023-05-01T13:00:43.907Z,0.70
2023-05-01T13:01:43.987Z,0.71
2023-05-01T13:02:44.072Z,0.72
2023-05-01T13:03:44.219Z,0.71
2023-05-01T13:04:44.164Z,0.71
2023-05-01T13:05:44.223Z,0.72
2023-05-01T13:06:44.336Z,0.72
2023-05-01T13:07:44.352Z,0.72
2023-05-01T13:08:44.414Z,0.72
2023-05-01T13:09:44.456Z,0.72
2023-05-01T13:10:44.513Z,0.71
2023-05-01T13:11:44.578Z,0.73
2023-05-01T13:12:44.676Z,0.73
2023-05-01T13:13:44.690Z,0.71
2023-05-01T13:14:44.750Z,0.72
2023-05-01T13:15:44.819Z,0.70
2023-05-01T13:16:44.929Z,0.72
2023-05-01T13:17:44.982Z,0.71
2023-05-01T13:18:45.030Z,0.69